Meteo Giornale » Osservazioni meteo Italia » Bergamo-Orio Al Serio

ore: 19:50 - Osservazioni Meteo Bergamo-Orio Al Serio
Lat. 45° 40' N Lon. 9° 42' E Alt. 238 metri s.l.m.

coperto_pioggia Europe/Rome

17 °C

Pioggia

Temp. 24 Ore

17 °C

26 °C

Ovest

9.3 Km/h

Dew point 17 °C

Umidità 100 %

Visibilità  7 Km

Il sole sorge alle ore 06:06

Il sole tramonta alle ore 20:48

Data e Ora Cielo e Fenomeni T °C DP °C Um. % Pres. hPa Vis. km Vento km/h
Oggi h: 19:50 coperto_pioggia Pioggia 17 17 100 1003 7 O 9.3
Oggi h: 19:20 coperto_pioggia Pioggia 17 17 100 1003 8 N 5.5
Oggi h: 18:50 nuvoloso_piovaschi Rovescio di Pioggia 17 17 100 1004 7 SO 11.1
Oggi h: 18:20 nuvoloso_piovaschi Rovescio di Pioggia 18 17 93 1004 5 NO 13
Oggi h: 17:50 nuvoloso_piovaschi Rovescio di Pioggia 20 17 82 1004 7 N 7.4
Oggi h: 17:20 coperto_pioggia Pioggia Debole 19 17 88 1004 10 N 16.7
Oggi h: 16:50 coperto_pioggia Pioggia Debole 19 17 88 1005 10 N 13
Oggi h: 16:20 coperto_pioggia Pioggia Debole 19 18 93 1005 10 N 11.1
Oggi h: 15:50 coperto_pioggia Pioggia Debole 19 18 93 1005 8 N/NE 9.3
Oggi h: 15:20 nuvoloso_piovaschi Debole Rovescio di Pioggia 19 19 100 1006 6 E/NE 11.1
Oggi h: 14:50 nuvoloso_temporali Temporale con Pioggia 20 20 100 1006 5 S/SE 13
Oggi h: 14:20 nuvoloso_temporali Temporale con Pioggia 21 19 88 1006 4 SO 13
Oggi h: 13:50 nuvoloso_temporali Temporale con Pioggia 22 19 83 1006 4 S 13
Oggi h: 13:20 molto_nuvoloso Molto Nuvoloso 23 17 68 1006 10 SE 11.1
Oggi h: 12:50 molto_nuvoloso Molto Nuvoloso 24 17 64 1007 10 N 5.5
Oggi h: 12:20 molto_nuvoloso Molto Nuvoloso 24 16 60 1007 10 SE 9.3
Oggi h: 11:50 nuvoloso Nuvoloso 24 17 64 1007 10 N 3.7
Oggi h: 11:20 poco_nuvoloso Poco Nuvoloso 24 17 64 1007 10 N 1.8
Oggi h: 10:50 nuvoloso Nuvoloso 23 16 64 1008 10 N 3.7
Oggi h: 10:20 nuvoloso Nuvoloso 23 17 68 1008 10 N 5.5
Oggi h: 09:50 nuvoloso Nuvoloso 22 17 73 1008 10 N 5.5
Oggi h: 09:20 nuvoloso Nuvoloso 22 17 73 1008 10 N 3.7
Oggi h: 08:50 nuvoloso Nuvoloso 22 17 73 1008 10 N 1.8
Oggi h: 08:20 poco_nuvoloso Poco Nuvoloso 21 17 77 1008 10 N 1.8
Oggi h: 07:50 poco_nuvoloso Poco Nuvoloso 21 17 77 1008 10 N 3.7
Oggi h: 07:20 poco_nuvoloso Poco Nuvoloso 20 17 82 1008 10 N 1.8
Oggi h: 06:50 nuvoloso Nuvoloso 19 18 93 1009 10 N 3.7
Oggi h: 06:20 sereno Sereno 18 17 93 1009 10 N/NE 9.3
Oggi h: 05:50 poco_nuvoloso Poco Nuvoloso 18 17 93 1009 10 N 3.7
Oggi h: 04:50 sereno Sereno 19 17 88 1008 10 N 1.8
Oggi h: 04:20 nuvoloso Nuvoloso 19 17 88 1008 10 N 5.5
Oggi h: 03:50 nuvoloso Nuvoloso 19 18 93 1008 10 N 7.4
Oggi h: 03:20 poco_nuvoloso Poco Nuvoloso 20 17 82 1008 10 N 7.4
Oggi h: 02:50 sereno Sereno 20 17 82 1008 10 N 9.3
Oggi h: 02:20 molto_nuvoloso Molto Nuvoloso 19 18 93 1009 10 N 5.5
Oggi h: 01:50 molto_nuvoloso Molto Nuvoloso 20 17 82 1009 10 N/NE 11.1
Oggi h: 01:20 nuvoloso_temporali Temporale nelle Vicinanze 19 17 88 1010 10 E/NE 7.4
Oggi h: 00:50 molto_nuvoloso Molto Nuvoloso 19 18 93 1011 10 E/NE 9.3
Oggi h: 00:20 coperto_pioggia Pioggia Temporale nelle Vicinanze 18 18 100 1011 10 E/NE 11.1
Ieri h: 23:50 coperto_pioggia Pioggia Temporale nelle Vicinanze 19 18 93 1011 10 S 20.3
Ieri h: 23:20 coperto_pioggia Pioggia Debole Temporale nelle Vicinanze 19 17 88 1010 10 N 18.5
Ieri h: 22:50 nuvoloso_temporali Temporale con Pioggia 21 18 82 1011 10 N/NO 16.7
Ieri h: 22:20 coperto_pioggia Pioggia Temporale nelle Vicinanze 25 21 78 1010 10 N 5.5
Ieri h: 21:50 coperto_pioggia Pioggia Debole 25 19 69 1009 10 SE 11.1
Ieri h: 21:20 molto_nuvoloso Molto Nuvoloso 26 19 65 1009 10 N 5.5
Ieri h: 20:50 nuvoloso Nuvoloso 26 19 65 1008 10 N 5.5